createdAt,value
2023-02-12T00:01:43.272Z,2.50
2023-02-12T00:04:11.895Z,2.45
2023-02-12T00:06:40.658Z,2.10
2023-02-12T00:09:09.231Z,1.77
2023-02-12T00:11:37.872Z,2.13
2023-02-12T00:14:06.362Z,1.80
2023-02-12T00:16:34.993Z,2.05
2023-02-12T00:19:05.151Z,1.98
2023-02-12T00:21:33.619Z,1.48
2023-02-12T00:24:02.533Z,1.83
2023-02-12T00:26:31.200Z,1.40
2023-02-12T00:28:59.947Z,1.58
2023-02-12T00:31:32.489Z,1.50
2023-02-12T00:34:02.744Z,1.45
2023-02-12T00:36:34.420Z,1.60
2023-02-12T00:39:03.348Z,1.80
2023-02-12T00:41:31.916Z,2.15
2023-02-12T00:44:00.563Z,2.88
2023-02-12T00:46:29.239Z,4.40
2023-02-12T00:48:57.759Z,4.10
2023-02-12T00:51:26.463Z,2.78
2023-02-12T00:53:56.573Z,2.80
2023-02-12T00:56:24.973Z,2.95
2023-02-12T00:58:53.564Z,2.13
2023-02-12T01:01:22.388Z,2.20
2023-02-12T01:03:51.061Z,2.33
2023-02-12T01:06:19.854Z,2.40
2023-02-12T01:08:51.409Z,2.30
2023-02-12T01:11:21.482Z,2.40
2023-02-12T01:13:50.077Z,2.45
2023-02-12T01:16:20.442Z,2.50
2023-02-12T01:18:49.711Z,2.63
2023-02-12T01:21:20.682Z,2.50
2023-02-12T01:23:50.666Z,2.95
2023-02-12T01:26:22.980Z,3.03
2023-02-12T01:28:54.328Z,2.83
2023-02-12T01:31:26.301Z,3.00
2023-02-12T01:33:57.061Z,2.75
2023-02-12T01:36:26.496Z,2.80
2023-02-12T01:38:55.493Z,2.65
2023-02-12T01:41:27.444Z,2.55
2023-02-12T01:44:15.629Z,2.95
2023-02-12T01:46:46.086Z,3.00
2023-02-12T01:49:18.681Z,2.80
2023-02-12T01:51:48.904Z,2.50
2023-02-12T01:54:21.270Z,3.20
2023-02-12T01:56:51.361Z,3.40
2023-02-12T01:59:22.247Z,3.40
2023-02-12T02:01:51.500Z,3.58
2023-02-12T02:04:26.792Z,3.38
2023-02-12T02:06:59.700Z,3.10
2023-02-12T02:09:30.075Z,3.38
2023-02-12T02:12:18.054Z,3.90
2023-02-12T02:14:48.944Z,3.03
2023-02-12T02:17:48.595Z,2.92
2023-02-12T02:20:49.437Z,2.40
2023-02-12T02:23:36.178Z,2.55
2023-02-12T02:26:36.765Z,2.50
2023-02-12T02:29:32.972Z,2.92
2023-02-12T02:32:08.253Z,2.40
2023-02-12T02:34:49.360Z,1.70
2023-02-12T02:37:21.219Z,1.40
2023-02-12T02:39:54.925Z,1.42
2023-02-12T02:42:33.063Z,0.90
2023-02-12T02:45:06.363Z,0.95
2023-02-12T02:47:41.381Z,0.98
2023-02-12T02:50:16.409Z,1.00
2023-02-12T02:52:51.025Z,0.90
2023-02-12T02:55:24.067Z,0.80
2023-02-12T02:57:58.994Z,1.00
2023-02-12T03:00:36.266Z,0.75
2023-02-12T03:03:12.605Z,0.90
2023-02-12T03:05:46.812Z,0.80
2023-02-12T03:08:24.443Z,0.90
2023-02-12T03:10:58.066Z,0.80
2023-02-12T03:13:34.127Z,0.88
2023-02-12T03:16:08.690Z,1.00
2023-02-12T03:18:44.312Z,0.85
2023-02-12T03:21:17.327Z,0.90
2023-02-12T03:23:54.312Z,1.02
2023-02-12T03:26:26.542Z,0.70
2023-02-12T03:28:55.264Z,0.60
2023-02-12T03:31:33.177Z,0.55
2023-02-12T03:34:11.012Z,0.90
2023-02-12T03:36:48.286Z,0.90
2023-02-12T03:39:27.128Z,0.80
2023-02-12T03:42:03.979Z,0.80
2023-02-12T03:44:49.193Z,0.80
2023-02-12T03:47:27.361Z,0.95
2023-02-12T03:50:05.198Z,0.95
2023-02-12T03:52:34.417Z,0.80
2023-02-12T03:55:04.188Z,0.80
2023-02-12T03:57:36.569Z,0.90
2023-02-12T04:00:11.447Z,0.98
2023-02-12T04:02:40.181Z,0.77
2023-02-12T04:05:18.248Z,1.02
2023-02-12T04:07:47.011Z,1.08
2023-02-12T04:10:16.412Z,0.80
2023-02-12T04:12:54.386Z,0.90
2023-02-12T04:15:45.082Z,1.00
2023-02-12T04:18:20.360Z,0.95
2023-02-12T04:20:59.821Z,0.70
2023-02-12T04:23:46.111Z,0.70
2023-02-12T04:26:25.034Z,0.90
2023-02-12T04:29:10.020Z,0.60
2023-02-12T04:31:47.820Z,0.63
2023-02-12T04:34:21.908Z,0.80
2023-02-12T04:36:58.361Z,0.90
2023-02-12T04:39:31.700Z,1.00
2023-02-12T04:42:01.461Z,1.10
2023-02-12T04:44:32.834Z,1.05
2023-02-12T04:47:02.047Z,1.02
2023-02-12T04:49:30.864Z,1.00
2023-02-12T04:52:01.017Z,1.00
2023-02-12T04:54:29.615Z,0.80
2023-02-12T04:56:59.475Z,0.88
2023-02-12T04:59:28.284Z,0.90
2023-02-12T05:01:56.595Z,0.80
2023-02-12T05:04:25.198Z,0.88
2023-02-12T05:06:53.779Z,0.70
2023-02-12T05:09:24.095Z,1.00
2023-02-12T05:11:52.661Z,0.73
2023-02-12T05:14:21.455Z,0.60
2023-02-12T05:16:50.050Z,0.85
2023-02-12T05:19:18.819Z,0.77
2023-02-12T05:21:47.449Z,0.60
2023-02-12T05:24:16.307Z,0.55
2023-02-12T05:26:46.367Z,0.80
2023-02-12T05:29:14.887Z,0.60
2023-02-12T05:31:43.561Z,0.70
2023-02-12T05:34:13.784Z,0.70
2023-02-12T05:36:42.568Z,0.80
2023-02-12T05:39:12.853Z,0.77
2023-02-12T05:41:41.376Z,0.73
2023-02-12T05:44:12.859Z,0.70
2023-02-12T05:46:41.680Z,0.70
2023-02-12T05:49:11.241Z,0.70
2023-02-12T05:51:40.548Z,0.70
2023-02-12T05:54:09.276Z,0.90
2023-02-12T05:56:43.408Z,0.70
2023-02-12T05:59:18.055Z,0.63
2023-02-12T06:01:48.152Z,0.68
2023-02-12T06:04:18.985Z,0.70
2023-02-12T06:06:47.833Z,0.80
2023-02-12T06:09:17.143Z,0.63
2023-02-12T06:11:45.879Z,0.57
2023-02-12T06:14:19.440Z,0.80
2023-02-12T06:16:49.316Z,0.90
2023-02-12T06:19:18.161Z,0.60
2023-02-12T06:21:46.974Z,0.70
2023-02-12T06:24:17.597Z,0.65
2023-02-12T06:26:47.290Z,0.90
2023-02-12T06:29:17.341Z,0.75
2023-02-12T06:31:47.804Z,0.80
2023-02-12T06:34:18.367Z,0.73
2023-02-12T06:36:48.639Z,0.80
2023-02-12T06:39:18.963Z,0.80
2023-02-12T06:41:47.900Z,0.88
2023-02-12T06:44:18.129Z,0.95
2023-02-12T06:46:47.041Z,0.88
2023-02-12T06:49:17.003Z,0.70
2023-02-12T06:51:45.405Z,0.90
2023-02-12T06:54:16.796Z,0.80
2023-02-12T06:56:45.882Z,0.60
2023-02-12T06:59:16.854Z,0.73
2023-02-12T07:01:47.125Z,0.70
2023-02-12T07:04:16.045Z,0.60
2023-02-12T07:06:45.074Z,0.93
2023-02-12T07:09:13.610Z,0.73
2023-02-12T07:11:42.285Z,0.60
2023-02-12T07:14:16.063Z,0.60
2023-02-12T07:16:44.790Z,0.60
2023-02-12T07:19:17.070Z,0.90
2023-02-12T07:21:45.739Z,0.98
2023-02-12T07:24:18.650Z,0.90
2023-02-12T07:26:47.353Z,1.00
2023-02-12T07:29:16.166Z,0.90
2023-02-12T07:31:45.325Z,1.02
2023-02-12T07:34:15.672Z,1.13
2023-02-12T07:36:44.386Z,0.80
2023-02-12T07:39:14.881Z,1.13
2023-02-12T07:41:46.194Z,1.00
2023-02-12T07:44:15.109Z,1.00
2023-02-12T07:46:48.144Z,0.90
2023-02-12T07:49:20.023Z,0.90
2023-02-12T07:51:49.297Z,0.73
2023-02-12T07:54:18.357Z,0.80
2023-02-12T07:56:48.144Z,0.80
2023-02-12T07:59:18.957Z,0.82
2023-02-12T08:01:49.234Z,0.80
2023-02-12T08:04:21.373Z,0.90
2023-02-12T08:06:52.295Z,0.80
2023-02-12T08:09:23.798Z,1.02
2023-02-12T08:11:52.813Z,0.70
2023-02-12T08:14:24.316Z,0.90
2023-02-12T08:16:53.570Z,0.90
2023-02-12T08:19:26.409Z,0.88
2023-02-12T08:21:57.135Z,1.30
2023-02-12T08:24:26.423Z,0.90
2023-02-12T08:26:55.437Z,1.00
2023-02-12T08:29:26.222Z,1.00
2023-02-12T08:31:58.591Z,0.88
2023-02-12T08:34:30.852Z,1.13
2023-02-12T08:37:00.216Z,1.00
2023-02-12T08:39:30.741Z,1.20
2023-02-12T08:42:00.867Z,1.00
2023-02-12T08:44:29.592Z,0.90
2023-02-12T08:46:58.249Z,0.90
2023-02-12T08:49:30.429Z,1.15
2023-02-12T08:52:02.169Z,0.98
2023-02-12T08:54:33.033Z,0.90
2023-02-12T08:57:03.939Z,1.10
2023-02-12T09:00:03.366Z,1.00
2023-02-12T09:02:33.810Z,0.80
2023-02-12T09:05:04.018Z,1.08
2023-02-12T09:07:32.636Z,1.10
2023-02-12T09:10:01.220Z,1.20
2023-02-12T09:12:30.134Z,1.05
2023-02-12T09:14:59.133Z,1.10
2023-02-12T09:17:27.841Z,1.13
2023-02-12T09:19:56.779Z,1.10
2023-02-12T09:22:26.935Z,1.20
2023-02-12T09:24:55.983Z,1.55
2023-02-12T09:27:24.551Z,1.80
2023-02-12T09:29:53.245Z,1.00
2023-02-12T09:32:21.686Z,1.30
2023-02-12T09:34:50.294Z,1.30
2023-02-12T09:37:18.889Z,2.00
2023-02-12T09:39:51.144Z,1.40
2023-02-12T09:42:33.031Z,1.70
2023-02-12T09:45:11.880Z,1.40
2023-02-12T09:47:45.753Z,1.70
2023-02-12T09:50:28.673Z,1.80
2023-02-12T09:52:59.527Z,1.52
2023-02-12T09:55:32.411Z,1.55
2023-02-12T09:58:05.504Z,1.70
2023-02-12T10:00:34.329Z,1.65
2023-02-12T10:03:05.823Z,1.88
2023-02-12T10:05:40.399Z,2.00
2023-02-12T10:08:43.122Z,2.00
2023-02-12T10:11:37.666Z,1.80
2023-02-12T10:14:29.164Z,1.65
2023-02-12T10:17:05.688Z,1.88
2023-02-12T10:19:53.018Z,2.00
2023-02-12T10:22:31.189Z,1.70
2023-02-12T10:25:10.665Z,1.70
2023-02-12T10:27:48.546Z,1.70
2023-02-12T10:30:23.247Z,1.67
2023-02-12T10:32:56.363Z,2.05
2023-02-12T10:35:26.758Z,2.10
2023-02-12T10:38:00.094Z,1.67
2023-02-12T10:40:34.815Z,1.60
2023-02-12T10:43:05.270Z,1.50
2023-02-12T10:45:36.061Z,1.60
2023-02-12T10:48:10.291Z,1.58
2023-02-12T10:50:51.524Z,2.13
2023-02-12T10:53:24.050Z,1.60
2023-02-12T10:56:12.006Z,1.83
2023-02-12T10:58:44.677Z,1.33
2023-02-12T11:01:22.420Z,1.50
2023-02-12T11:03:50.851Z,1.40
2023-02-12T11:06:22.298Z,1.63
2023-02-12T11:08:51.952Z,1.70
2023-02-12T11:11:27.157Z,1.52
2023-02-12T11:14:00.128Z,1.58
2023-02-12T11:16:32.052Z,1.73
2023-02-12T11:19:04.928Z,1.52
2023-02-12T11:21:34.442Z,1.33
2023-02-12T11:24:38.836Z,1.40
2023-02-12T11:27:25.201Z,1.38
2023-02-12T11:30:18.680Z,1.40
2023-02-12T11:32:49.944Z,1.13
2023-02-12T11:35:25.967Z,1.70
2023-02-12T11:37:57.696Z,1.42
2023-02-12T11:40:29.141Z,1.10
2023-02-12T11:43:01.108Z,1.27
2023-02-12T11:45:35.815Z,1.55
2023-02-12T11:48:12.267Z,1.90
2023-02-12T11:50:43.643Z,2.00
2023-02-12T11:53:23.503Z,2.05
2023-02-12T11:56:01.922Z,1.95
2023-02-12T11:58:32.483Z,2.00
2023-02-12T12:01:09.992Z,2.40
2023-02-12T12:03:46.735Z,2.30
2023-02-12T12:06:29.569Z,2.10
2023-02-12T12:09:04.591Z,2.42
2023-02-12T12:11:42.797Z,2.50
2023-02-12T12:14:19.525Z,2.88
2023-02-12T12:17:15.022Z,2.00
2023-02-12T12:19:55.218Z,2.70
2023-02-12T12:22:38.428Z,2.30
2023-02-12T12:25:14.948Z,2.00
2023-02-12T12:28:05.933Z,2.40
2023-02-12T12:30:55.399Z,2.00
2023-02-12T12:33:35.313Z,1.73
2023-02-12T12:36:32.828Z,1.85
2023-02-12T12:39:09.094Z,1.42
2023-02-12T12:41:55.398Z,1.80
2023-02-12T12:44:33.141Z,1.40
2023-02-12T12:47:16.660Z,1.85
2023-02-12T12:50:10.882Z,1.67
2023-02-12T12:52:56.034Z,1.48
2023-02-12T12:55:54.672Z,2.45
2023-02-12T12:58:36.005Z,3.03
2023-02-12T13:01:30.404Z,2.97
2023-02-12T13:04:32.899Z,2.88
2023-02-12T13:07:29.130Z,2.90
2023-02-12T13:10:09.316Z,2.95
2023-02-12T13:12:57.248Z,2.80
2023-02-12T13:15:34.814Z,2.85
2023-02-12T13:18:15.171Z,2.67
2023-02-12T13:20:53.210Z,2.50
2023-02-12T13:23:33.710Z,2.65
2023-02-12T13:26:13.549Z,2.70
2023-02-12T13:28:45.356Z,2.58
2023-02-12T13:31:32.673Z,2.38
2023-02-12T13:34:05.841Z,2.28
2023-02-12T13:36:37.793Z,2.40
2023-02-12T13:39:17.507Z,2.50
2023-02-12T13:41:56.241Z,2.88
2023-02-12T13:44:34.456Z,2.15
2023-02-12T13:47:13.168Z,3.20
2023-02-12T13:49:51.349Z,2.80
2023-02-12T13:52:30.687Z,3.08
2023-02-12T13:55:21.524Z,3.13
2023-02-12T13:58:35.208Z,2.78
2023-02-12T14:01:08.019Z,2.65
2023-02-12T14:03:39.289Z,2.70
2023-02-12T14:06:14.939Z,3.15
2023-02-12T14:08:48.221Z,2.65
2023-02-12T14:11:20.549Z,2.30
2023-02-12T14:13:54.658Z,2.33
2023-02-12T14:16:40.174Z,2.35
2023-02-12T14:19:39.870Z,2.58
2023-02-12T14:22:58.080Z,1.45
2023-02-12T14:25:46.159Z,2.30
2023-02-12T14:28:29.212Z,2.10
2023-02-12T14:31:30.613Z,2.47
2023-02-12T14:34:32.311Z,2.40
2023-02-12T14:37:20.452Z,2.03
2023-02-12T14:39:49.765Z,2.22
2023-02-12T14:42:56.481Z,2.20
2023-02-12T14:45:37.880Z,2.30
2023-02-12T14:48:07.454Z,2.60
2023-02-12T14:50:42.731Z,2.20
2023-02-12T14:53:32.396Z,1.98
2023-02-12T14:56:02.553Z,2.00
2023-02-12T14:58:37.507Z,1.80
2023-02-12T15:01:09.724Z,2.30
2023-02-12T15:03:44.417Z,2.20
2023-02-12T15:06:18.688Z,2.63
2023-02-12T15:08:53.655Z,2.20
2023-02-12T15:11:30.134Z,2.40
2023-02-12T15:14:03.790Z,2.10
2023-02-12T15:16:43.919Z,1.90
2023-02-12T15:19:24.647Z,2.38
2023-02-12T15:21:55.546Z,2.00
2023-02-12T15:24:26.788Z,2.72
2023-02-12T15:26:57.914Z,2.85
2023-02-12T15:29:33.264Z,3.22
2023-02-12T15:32:07.088Z,2.45
2023-02-12T15:34:40.355Z,2.88
2023-02-12T15:37:13.204Z,2.38
2023-02-12T15:39:45.033Z,2.70
2023-02-12T15:42:29.092Z,2.83
2023-02-12T15:45:18.163Z,3.15
2023-02-12T15:47:59.319Z,2.50
2023-02-12T15:50:29.207Z,2.20
2023-02-12T15:52:58.435Z,2.22
2023-02-12T15:55:31.004Z,2.17
2023-02-12T15:58:02.839Z,2.42
2023-02-12T16:00:39.020Z,2.25
2023-02-12T16:03:21.625Z,1.90
2023-02-12T16:05:51.083Z,2.15
2023-02-12T16:08:23.114Z,2.38
2023-02-12T16:10:55.180Z,2.20
2023-02-12T16:13:33.834Z,1.40
2023-02-12T16:16:08.651Z,1.83
2023-02-12T16:18:38.926Z,2.15
2023-02-12T16:21:13.781Z,1.90
2023-02-12T16:23:44.911Z,1.65
2023-02-12T16:26:19.711Z,1.58
2023-02-12T16:28:49.981Z,1.70
2023-02-12T16:31:19.689Z,2.50
2023-02-12T16:33:54.284Z,2.55
2023-02-12T16:36:33.895Z,2.30
2023-02-12T16:39:05.834Z,2.58
2023-02-12T16:41:35.371Z,3.00
2023-02-12T16:44:29.794Z,2.15
2023-02-12T16:47:00.874Z,1.95
2023-02-12T16:49:31.027Z,2.10
2023-02-12T16:52:23.714Z,1.75
2023-02-12T16:54:52.011Z,2.03
2023-02-12T16:57:20.656Z,2.10
2023-02-12T16:59:49.300Z,2.20
2023-02-12T17:02:17.921Z,2.58
2023-02-12T17:04:47.900Z,2.13
2023-02-12T17:07:28.425Z,1.92
2023-02-12T17:09:57.206Z,2.00
2023-02-12T17:12:25.914Z,2.10
2023-02-12T17:14:56.097Z,2.45
2023-02-12T17:17:24.704Z,2.88
2023-02-12T17:19:54.725Z,2.80
2023-02-12T17:22:27.834Z,3.50
2023-02-12T17:24:56.800Z,3.20
2023-02-12T17:27:25.880Z,3.20
2023-02-12T17:29:54.485Z,3.15
2023-02-12T17:32:25.019Z,2.83
2023-02-12T17:34:55.064Z,3.20
2023-02-12T17:37:25.763Z,4.45
2023-02-12T17:39:56.244Z,4.25
2023-02-12T17:42:24.859Z,4.55
2023-02-12T17:44:54.562Z,5.05
2023-02-12T17:47:23.148Z,4.57
2023-02-12T17:49:51.700Z,4.70
2023-02-12T17:52:21.898Z,4.43
2023-02-12T17:54:50.347Z,4.57
2023-02-12T17:57:19.211Z,4.43
2023-02-12T17:59:47.919Z,4.50
2023-02-12T18:02:16.777Z,4.63
2023-02-12T18:04:45.496Z,4.07
2023-02-12T18:07:14.227Z,3.95
2023-02-12T18:09:44.275Z,6.35
2023-02-12T18:12:12.892Z,6.55
2023-02-12T18:14:41.434Z,6.00
2023-02-12T18:17:10.255Z,5.53
2023-02-12T18:19:38.674Z,5.35
2023-02-12T18:22:07.160Z,4.72
2023-02-12T18:24:36.088Z,5.85
2023-02-12T18:27:06.465Z,5.55
2023-02-12T18:29:34.989Z,4.70
2023-02-12T18:32:03.540Z,5.15
2023-02-12T18:34:31.985Z,4.85
2023-02-12T18:37:00.655Z,5.32
2023-02-12T18:39:30.366Z,5.47
2023-02-12T18:41:58.953Z,5.70
2023-02-12T18:44:29.111Z,5.93
2023-02-12T18:47:00.425Z,6.00
2023-02-12T18:49:30.770Z,6.45
2023-02-12T18:51:59.688Z,6.95
2023-02-12T18:54:28.331Z,7.15
2023-02-12T18:56:56.909Z,6.70
2023-02-12T18:59:27.250Z,6.38
2023-02-12T19:01:57.891Z,6.10
2023-02-12T19:04:28.047Z,5.50
2023-02-12T19:06:57.451Z,5.82
2023-02-12T19:09:27.376Z,6.15
2023-02-12T19:11:58.645Z,8.65
2023-02-12T19:14:28.199Z,9.38
2023-02-12T19:16:58.105Z,5.22
2023-02-12T19:19:28.182Z,5.22
2023-02-12T19:21:56.822Z,5.93
2023-02-12T19:24:40.941Z,7.05
2023-02-12T19:27:14.316Z,6.07
2023-02-12T19:29:42.993Z,6.90
2023-02-12T19:32:13.149Z,6.05
2023-02-12T19:34:41.880Z,6.30
2023-02-12T19:37:12.024Z,6.63
2023-02-12T19:39:41.277Z,6.20
2023-02-12T19:42:10.774Z,6.30
2023-02-12T19:44:41.037Z,5.97
2023-02-12T19:47:11.065Z,6.25
2023-02-12T19:49:41.807Z,6.88
2023-02-12T19:52:10.267Z,8.07
2023-02-12T19:54:38.858Z,6.72
2023-02-12T19:57:09.381Z,8.88
2023-02-12T19:59:38.735Z,6.93
2023-02-12T20:02:07.380Z,6.50
2023-02-12T20:04:36.196Z,7.50
2023-02-12T20:07:08.402Z,6.38
2023-02-12T20:09:37.747Z,6.68
2023-02-12T20:12:07.880Z,5.95
2023-02-12T20:14:37.128Z,5.78
2023-02-12T20:17:07.340Z,5.45
2023-02-12T20:19:38.272Z,6.18
2023-02-12T20:22:08.481Z,7.18
2023-02-12T20:24:37.109Z,6.35
2023-02-12T20:27:06.120Z,5.88
2023-02-12T20:29:34.405Z,6.50
2023-02-12T20:32:05.702Z,6.53
2023-02-12T20:34:48.905Z,6.20
2023-02-12T20:37:23.705Z,6.85
2023-02-12T20:39:52.187Z,7.03
2023-02-12T20:42:20.621Z,7.45
2023-02-12T20:44:49.180Z,6.82
2023-02-12T20:47:18.091Z,6.97
2023-02-12T20:49:46.756Z,6.90
2023-02-12T20:52:15.508Z,7.20
2023-02-12T20:54:47.902Z,6.97
2023-02-12T20:57:16.899Z,6.88
2023-02-12T20:59:46.033Z,11.40
2023-02-12T21:02:14.447Z,8.95
2023-02-12T21:04:42.791Z,8.70
2023-02-12T21:07:11.512Z,8.27
2023-02-12T21:09:39.979Z,10.23
2023-02-12T21:12:10.064Z,9.70
2023-02-12T21:14:38.742Z,7.45
2023-02-12T21:17:07.715Z,7.90
2023-02-12T21:19:37.171Z,7.13
2023-02-12T21:22:05.750Z,7.45
2023-02-12T21:24:34.489Z,7.72
2023-02-12T21:27:03.304Z,7.55
2023-02-12T21:29:34.056Z,6.90
2023-02-12T21:32:02.543Z,8.43
2023-02-12T21:34:31.549Z,8.07
2023-02-12T21:37:00.209Z,8.40
2023-02-12T21:39:29.843Z,7.30
2023-02-12T21:42:00.423Z,8.63
2023-02-12T21:44:29.578Z,7.43
2023-02-12T21:47:00.417Z,8.38
2023-02-12T21:49:29.217Z,8.63
2023-02-12T21:52:02.616Z,8.60
2023-02-12T21:54:32.164Z,7.80
2023-02-12T21:57:02.065Z,8.43
2023-02-12T21:59:32.370Z,8.18
2023-02-12T22:02:03.235Z,7.75
2023-02-12T22:04:31.982Z,7.57
2023-02-12T22:07:03.765Z,8.73
2023-02-12T22:09:33.000Z,9.38
2023-02-12T22:12:01.852Z,8.57
2023-02-12T22:14:30.573Z,8.10
2023-02-12T22:16:59.501Z,8.63
2023-02-12T22:19:29.789Z,8.10
2023-02-12T22:22:00.154Z,7.97
2023-02-12T22:24:28.757Z,8.02
2023-02-12T22:26:57.470Z,8.85
2023-02-12T22:29:26.103Z,8.48
2023-02-12T22:31:55.022Z,9.60
2023-02-12T22:34:23.842Z,9.60
2023-02-12T22:36:53.810Z,9.35
2023-02-12T22:39:22.714Z,9.90
2023-02-12T22:41:51.262Z,9.65
2023-02-12T22:44:21.309Z,10.30
2023-02-12T22:46:50.762Z,9.98
2023-02-12T22:49:19.386Z,9.75
2023-02-12T22:51:48.234Z,9.95
2023-02-12T22:54:20.067Z,9.52
2023-02-12T22:56:51.559Z,11.00
2023-02-12T22:59:20.676Z,10.85
2023-02-12T23:01:49.150Z,11.10
2023-02-12T23:04:18.797Z,11.43
2023-02-12T23:06:47.609Z,10.95
2023-02-12T23:09:19.753Z,11.73
2023-02-12T23:11:48.927Z,11.93
2023-02-12T23:14:18.186Z,11.40
2023-02-12T23:16:47.864Z,11.90
2023-02-12T23:19:17.210Z,11.57
2023-02-12T23:21:45.760Z,12.00
2023-02-12T23:24:16.188Z,12.80
2023-02-12T23:26:46.681Z,12.20
2023-02-12T23:29:15.422Z,12.38
2023-02-12T23:31:49.842Z,12.43
2023-02-12T23:34:18.606Z,12.57
2023-02-12T23:36:48.583Z,12.45
2023-02-12T23:39:17.519Z,12.82
2023-02-12T23:41:48.084Z,13.07
2023-02-12T23:44:16.743Z,12.02
2023-02-12T23:46:45.406Z,11.68
2023-02-12T23:49:14.055Z,11.23
2023-02-12T23:51:42.734Z,11.50
2023-02-12T23:54:11.880Z,11.68
2023-02-12T23:56:42.421Z,11.00
2023-02-12T23:59:12.682Z,11.10
